Time;durP1;ratioP1;P1;durP2;ratioP2;P2;SDS_P1;SDS_P2;PMS_P1;PMS_P2;Temp;Humidity;BMP_temperature;BMP_pressure;BME280_temperature;BME280_humidity;BME280_pressure;Samples;Min_cycle;Max_cycle;Signal;HPM_P1;HPM_P2
2023/09/13 00:00:50;;;;;;;34.78;28.73;;;;;;;18.02;100.00;101268.06;5076132;28;20496;-75
2023/09/13 00:03:15;;;;;;;39.00;29.83;;;;;;;18.09;100.00;101275.34;5057735;28;20029;-76
2023/09/13 00:05:42;;;;;;;38.03;29.55;;;;;;;18.09;100.00;101275.34;5076204;28;20032;-73
2023/09/13 00:08:08;;;;;;;38.95;29.23;;;;;;;18.05;100.00;101273.03;5076071;28;20124;-73
2023/09/13 00:10:33;;;;;;;39.67;30.23;;;;;;;18.04;100.00;101254.88;5075918;28;20103;-72
2023/09/13 00:12:59;;;;;;;38.78;30.45;;;;;;;18.15;100.00;101272.22;5075510;28;20040;-72
2023/09/13 00:15:24;;;;;;;37.95;30.95;;;;;;;18.13;100.00;101268.91;5075616;28;20075;-72
2023/09/13 00:17:49;;;;;;;43.65;31.17;;;;;;;18.18;100.00;101271.94;5057691;28;20129;-72
2023/09/13 00:20:15;;;;;;;39.72;30.02;;;;;;;18.16;100.00;101261.63;5075711;28;20059;-72
2023/09/13 00:22:40;;;;;;;40.20;30.05;;;;;;;18.20;100.00;101272.66;5075819;28;20489;-73
2023/09/13 00:25:06;;;;;;;37.03;28.92;;;;;;;18.24;100.00;101274.03;5075647;28;20525;-73
2023/09/13 00:27:31;;;;;;;41.20;30.45;;;;;;;18.27;100.00;101274.56;5075432;28;20115;-72
2023/09/13 00:29:57;;;;;;;39.20;29.55;;;;;;;18.26;100.00;101272.09;5075408;28;20385;-73
2023/09/13 00:32:22;;;;;;;39.42;30.33;;;;;;;18.26;100.00;101267.69;5075626;28;20028;-72
2023/09/13 00:34:48;;;;;;;40.08;29.95;;;;;;;18.34;100.00;101280.09;5057505;28;20028;-73
2023/09/13 00:37:13;;;;;;;39.58;29.95;;;;;;;18.34;100.00;101283.53;5075439;28;20373;-72
2023/09/13 00:39:38;;;;;;;38.13;29.38;;;;;;;18.32;100.00;101271.56;5075187;28;20074;-72
2023/09/13 00:42:04;;;;;;;37.25;30.23;;;;;;;18.28;100.00;101270.16;5075029;28;20020;-72
2023/09/13 00:44:29;;;;;;;34.85;29.52;;;;;;;18.22;100.00;101268.94;5075235;28;20024;-73
2023/09/13 00:46:55;;;;;;;37.05;30.27;;;;;;;18.18;100.00;101264.91;5075116;28;20027;-73
2023/09/13 00:49:20;;;;;;;34.42;29.15;;;;;;;18.11;100.00;101252.56;5075033;28;20071;-72
2023/09/13 00:51:47;;;;;;;38.67;29.52;;;;;;;18.19;100.00;101268.34;5075109;28;20509;-72
2023/09/13 00:54:13;;;;;;;36.78;29.35;;;;;;;18.24;100.00;101282.69;5075011;28;20078;-73
2023/09/13 00:56:39;;;;;;;34.20;28.42;;;;;;;18.23;100.00;101275.00;5074862;28;20025;-73
2023/09/13 00:59:05;;;;;;;34.45;28.77;;;;;;;18.21;100.00;101277.75;5074530;28;20086;-74
2023/09/13 01:01:31;;;;;;;34.75;29.13;;;;;;;18.19;100.00;101274.44;5074929;28;20029;-73
2023/09/13 01:03:58;;;;;;;35.80;28.90;;;;;;;18.19;100.00;101274.44;5074863;28;20037;-72
2023/09/13 01:06:23;;;;;;;37.90;29.17;;;;;;;18.16;100.00;101273.88;5075029;28;20415;-73
2023/09/13 01:08:49;;;;;;;35.15;28.60;;;;;;;18.05;100.00;101257.34;5074688;28;20099;-72
2023/09/13 01:11:14;;;;;;;35.35;28.63;;;;;;;18.01;100.00;101261.19;5074817;28;20036;-73
2023/09/13 01:13:39;;;;;;;34.85;28.80;;;;;;;17.85;100.00;101242.56;5074480;28;20043;-72
2023/09/13 01:16:31;;;;;;;36.80;30.05;;;;;;;17.85;100.00;101263.47;5074599;28;20032;-72
2023/09/13 01:19:21;;;;;;;39.60;29.42;;;;;;;17.76;100.00;101266.88;5074383;28;20443;-72
2023/09/13 01:22:08;;;;;;;40.60;31.30;;;;;;;17.70;100.00;101267.44;5074547;28;20127;-74
2023/09/13 01:25:11;;;;;;;42.38;30.88;;;;;;;17.37;100.00;101226.69;5074207;28;20024;-72
2023/09/13 01:28:12;;;;;;;44.28;33.85;;;;;;;17.65;100.00;101265.16;5074204;28;20458;-72
2023/09/13 01:30:39;;;;;;;48.40;35.05;;;;;;;17.61;100.00;101252.53;5056278;28;20131;-72
2023/09/13 01:33:05;;;;;;;48.70;34.78;;;;;;;17.66;100.00;101258.16;5074394;28;20025;-73
2023/09/13 01:35:30;;;;;;;47.78;36.33;;;;;;;17.75;100.00;101270.47;5074171;28;20016;-73
2023/09/13 01:37:56;;;;;;;49.67;36.55;;;;;;;17.78;100.00;101271.00;5074008;28;20036;-73
2023/09/13 01:40:24;;;;;;;50.92;36.67;;;;;;;17.83;100.00;101267.19;5074396;28;20044;-72
2023/09/13 01:42:51;;;;;;;49.22;36.30;;;;;;;17.90;100.00;101276.16;5074035;28;20559;-73
2023/09/13 01:45:18;;;;;;;56.63;38.50;;;;;;;17.93;100.00;101271.47;5073973;28;20040;-72
2023/09/13 01:47:46;;;;;;;54.92;39.50;;;;;;;17.93;100.00;101281.94;5074162;28;20032;-72
2023/09/13 01:50:13;;;;;;;55.15;39.03;;;;;;;17.89;100.00;101283.16;5073755;28;20385;-73
2023/09/13 01:52:39;;;;;;;60.28;40.95;;;;;;;17.86;100.00;101288.66;5073765;28;20028;-72
2023/09/13 01:55:06;;;;;;;58.42;41.45;;;;;;;17.73;100.00;101270.59;5073841;28;20417;-72
2023/09/13 01:57:32;;;;;;;60.90;41.58;;;;;;;17.78;100.00;101286.69;5073917;28;20025;-71
2023/09/13 01:59:57;;;;;;;60.78;42.15;;;;;;;17.78;100.00;101291.09;5073561;28;20480;-72
2023/09/13 02:02:22;;;;;;;59.70;40.92;;;;;;;17.80;100.00;101294.41;5073970;28;20028;-73
2023/09/13 02:04:49;;;;;;;60.72;42.47;;;;;;;17.80;100.00;101296.16;5073598;28;20017;-72
2023/09/13 02:07:16;;;;;;;64.15;42.58;;;;;;;17.82;100.00;101286.44;5073304;28;20025;-72
2023/09/13 02:09:42;;;;;;;61.13;40.72;;;;;;;17.70;100.00;101272.66;5072433;28;20389;-74
2023/09/13 02:12:12;;;;;;;57.58;40.78;;;;;;;17.73;100.00;101293.28;5073507;28;20021;-73
2023/09/13 02:14:38;;;;;;;56.60;39.60;;;;;;;17.54;100.00;101278.31;5073443;28;20044;-72
2023/09/13 02:17:03;;;;;;;55.38;38.45;;;;;;;17.62;100.00;101304.63;5073417;28;20496;-73
2023/09/13 02:19:28;;;;;;;51.25;38.33;;;;;;;17.56;100.00;101312.97;5073351;28;20050;-72
2023/09/13 02:21:54;;;;;;;51.70;37.80;;;;;;;17.56;100.00;101304.31;5073225;28;20229;-72
2023/09/13 02:24:19;;;;;;;53.38;39.13;;;;;;;17.50;100.00;101300.41;5073744;28;20039;-72
2023/09/13 02:26:44;;;;;;;56.30;38.20;;;;;;;17.51;100.00;101309.09;5072250;28;20037;-72
2023/09/13 02:29:10;;;;;;;55.70;38.53;;;;;;;17.49;100.00;101307.41;5073017;28;20111;-73
2023/09/13 02:31:35;;;;;;;52.15;37.03;;;;;;;17.52;100.00;101311.56;5073258;28;20103;-72
2023/09/13 02:34:00;;;;;;;54.38;37.85;;;;;;;17.37;100.00;101298.00;5073042;28;20025;-73
2023/09/13 02:36:26;;;;;;;56.97;37.92;;;;;;;17.39;100.00;101311.75;5073069;28;20032;-72
2023/09/13 02:38:52;;;;;;;53.83;38.53;;;;;;;17.32;100.00;101323.69;5073308;28;20035;-73
2023/09/13 02:41:17;;;;;;;59.38;40.05;;;;;;;17.20;100.00;101304.63;5054747;28;20041;-72
2023/09/13 02:43:42;;;;;;;55.47;40.63;;;;;;;17.23;100.00;101321.03;5072871;28;20026;-72
2023/09/13 02:46:08;;;;;;;57.15;39.10;;;;;;;17.07;100.00;101311.00;5073018;28;20077;-72
2023/09/13 02:48:33;;;;;;;59.75;39.88;;;;;;;17.06;100.00;101310.19;5072939;28;20025;-72
2023/09/13 02:50:59;;;;;;;62.63;42.50;;;;;;;17.12;100.00;101327.13;5054673;28;20369;-73
2023/09/13 02:53:24;;;;;;;65.28;42.15;;;;;;;17.06;100.00;101318.00;5072796;28;20036;-72
2023/09/13 02:55:50;;;;;;;65.63;41.80;;;;;;;16.96;100.00;101309.28;5073044;28;20097;-72
2023/09/13 02:58:15;;;;;;;59.30;40.75;;;;;;;17.00;100.00;101328.13;5072716;28;20044;-72
2023/09/13 03:00:42;;;;;;;64.90;42.58;;;;;;;16.93;100.00;101327.81;5073020;28;20021;-72
2023/09/13 03:03:07;;;;;;;68.82;42.58;;;;;;;16.76;100.00;101304.88;5072707;28;20021;-72
2023/09/13 03:05:33;;;;;;;69.97;43.00;;;;;;;16.90;100.00;101338.47;5072756;28;20089;-74
2023/09/13 03:07:59;;;;;;;68.18;43.75;;;;;;;16.81;100.00;101326.19;5072540;28;20412;-72
2023/09/13 03:10:28;;;;;;;68.15;44.17;;;;;;;16.66;100.00;101306.53;5072511;28;20025;-73
2023/09/13 03:12:54;;;;;;;72.15;44.95;;;;;;;16.63;100.00;101299.81;5085470;28;20069;-72
2023/09/13 03:15:22;;;;;;;74.30;45.17;;;;;;;16.83;100.00;101321.69;5092572;28;20044;-73
2023/09/13 03:17:47;;;;;;;77.97;47.20;;;;;;;16.80;100.00;101332.34;5092614;28;20024;-73
2023/09/13 03:20:13;;;;;;;75.60;46.22;;;;;;;16.88;100.00;101338.59;5092789;28;20030;-72
2023/09/13 03:22:38;;;;;;;88.60;48.80;;;;;;;16.89;100.00;101340.25;5092540;28;20035;-72
2023/09/13 03:25:06;;;;;;;83.82;48.55;;;;;;;16.94;100.00;101334.69;5092448;28;20024;-73
2023/09/13 03:27:32;;;;;;;85.97;50.13;;;;;;;16.86;100.00;101314.44;5092838;28;20024;-72
2023/09/13 03:30:01;;;;;;;91.03;50.35;;;;;;;16.98;100.00;101328.25;5092622;28;20574;-72
2023/09/13 03:32:28;;;;;;;86.07;51.15;;;;;;;17.00;100.00;101336.78;5092776;28;20107;-73
2023/09/13 03:34:53;;;;;;;89.18;51.60;;;;;;;17.07;100.00;101326.66;5092896;28;20041;-73
2023/09/13 03:37:19;;;;;;;97.97;51.75;;;;;;;17.10;100.00;101332.44;5092487;28;20028;-73
2023/09/13 03:39:44;;;;;;;94.00;52.15;;;;;;;17.08;100.00;101323.09;5092613;28;20054;-76
2023/09/13 03:42:09;;;;;;;87.43;51.67;;;;;;;17.09;100.00;101329.97;5092279;28;20032;-72
2023/09/13 03:44:35;;;;;;;94.00;53.50;;;;;;;17.20;100.00;101341.19;5092706;28;20059;-74
2023/09/13 03:47:00;;;;;;;86.20;49.00;;;;;;;17.23;100.00;101344.50;5092564;28;20038;-73
2023/09/13 03:49:25;;;;;;;85.32;50.83;;;;;;;17.12;100.00;101330.56;5092404;28;20024;-75
2023/09/13 03:51:51;;;;;;;85.45;48.05;;;;;;;17.20;100.00;101342.97;5092603;28;20028;-73
2023/09/13 03:54:16;;;;;;;92.40;50.03;;;;;;;17.02;100.00;101310.59;5092333;28;20028;-73
2023/09/13 03:56:41;;;;;;;82.35;47.65;;;;;;;17.19;100.00;101341.31;5092467;28;20012;-74
2023/09/13 03:59:07;;;;;;;80.38;47.22;;;;;;;17.09;100.00;101325.59;5091290;28;20035;-73
2023/09/13 04:01:32;;;;;;;80.13;46.72;;;;;;;17.04;100.00;101319.94;5092390;28;20028;-72
2023/09/13 04:03:58;;;;;;;78.60;45.10;;;;;;;17.06;100.00;101345.91;5092513;28;20027;-73
2023/09/13 04:06:23;;;;;;;74.75;44.30;;;;;;;16.95;100.00;101336.34;5092433;28;20028;-73
2023/09/13 04:08:48;;;;;;;82.20;44.88;;;;;;;17.02;100.00;101344.50;5092232;28;20377;-73
2023/09/13 04:11:14;;;;;;;78.05;44.60;;;;;;;17.02;100.00;101342.72;5092092;28;20028;-73
2023/09/13 04:13:39;;;;;;;85.60;46.28;;;;;;;17.02;100.00;101345.31;5092159;28;20126;-72
2023/09/13 04:16:06;;;;;;;83.07;46.38;;;;;;;17.04;100.00;101337.38;5073960;28;20031;-73
2023/09/13 04:18:31;;;;;;;79.35;44.50;;;;;;;16.92;100.00;101307.91;5092250;28;20020;-72
2023/09/13 04:20:57;;;;;;;83.07;46.00;;;;;;;16.98;100.00;101309.97;5092324;28;20143;-73
2023/09/13 04:23:22;;;;;;;79.97;45.20;;;;;;;16.96;100.00;101313.69;5092368;28;20123;-72
2023/09/13 04:25:47;;;;;;;83.05;46.10;;;;;;;17.19;100.00;101344.75;5092074;28;20036;-73
2023/09/13 04:28:13;;;;;;;81.68;47.38;;;;;;;17.22;100.00;101345.47;5092075;28;20025;-73
2023/09/13 04:30:38;;;;;;;83.43;45.58;;;;;;;17.20;100.00;101342.97;5091999;28;20032;-75
2023/09/13 04:33:06;;;;;;;84.22;46.97;;;;;;;17.11;100.00;101317.66;5074866;28;20028;-75
2023/09/13 04:35:32;;;;;;;81.05;47.13;;;;;;;17.23;100.00;101340.13;5095721;28;20051;-73
2023/09/13 04:37:58;;;;;;;83.63;46.88;;;;;;;17.25;100.00;101345.22;5095809;28;20020;-75
2023/09/13 04:40:23;;;;;;;83.72;48.08;;;;;;;17.11;100.00;101326.31;5095538;28;20392;-73
2023/09/13 04:43:08;;;;;;;80.78;46.88;;;;;;;17.26;100.00;101349.47;5095496;28;20020;-73
2023/09/13 04:45:34;;;;;;;77.18;46.05;;;;;;;17.26;100.00;101341.63;5013441;28;20038;-73
2023/09/13 04:48:02;;;;;;;80.43;46.78;;;;;;;17.16;100.00;101329.34;5013489;28;20108;-72
2023/09/13 04:50:28;;;;;;;78.50;48.38;;;;;;;17.26;100.00;101346.84;5013265;28;20097;-73
2023/09/13 04:52:53;;;;;;;78.43;47.40;;;;;;;17.18;100.00;101335.25;5013420;28;20030;-72
2023/09/13 04:55:19;;;;;;;75.95;46.10;;;;;;;17.08;100.00;101323.94;5013040;28;20044;-73
2023/09/13 04:57:45;;;;;;;80.38;46.40;;;;;;;17.11;100.00;101328.91;5012261;28;20040;-72
2023/09/13 05:00:11;;;;;;;83.63;47.97;;;;;;;17.18;100.00;101335.25;5013242;28;20114;-74
2023/09/13 05:02:38;;;;;;;78.50;45.25;;;;;;;17.18;100.00;101344.88;5013119;28;20451;-72
2023/09/13 05:05:04;;;;;;;78.45;45.97;;;;;;;17.19;100.00;101346.53;5013078;28;20541;-73
2023/09/13 05:07:29;;;;;;;78.22;45.70;;;;;;;17.26;100.00;101352.91;5012729;28;20026;-73
2023/09/13 05:09:55;;;;;;;76.05;45.10;;;;;;;17.28;100.00;101358.81;5012954;28;20052;-72
2023/09/13 05:12:20;;;;;;;77.93;46.00;;;;;;;17.20;100.00;101353.41;5012813;28;20092;-73
2023/09/13 05:14:47;;;;;;;73.85;44.42;;;;;;;17.23;100.00;101366.22;5012830;28;20054;-73
2023/09/13 05:17:12;;;;;;;73.03;44.38;;;;;;;17.17;100.00;101364.94;5012878;28;20557;-76
2023/09/13 05:19:37;;;;;;;75.95;47.08;;;;;;;17.24;100.00;101354.81;5012907;28;20029;-76
2023/09/13 05:22:03;;;;;;;78.85;47.00;;;;;;;17.19;100.00;101349.13;5027002;28;20041;-73
2023/09/13 05:24:28;;;;;;;79.00;46.65;;;;;;;17.29;100.00;101365.69;5074448;28;20016;-72
2023/09/13 05:26:53;;;;;;;75.53;45.85;;;;;;;17.25;100.00;101364.31;5074247;28;20119;-73
2023/09/13 05:29:22;;;;;;;76.97;45.33;;;;;;;17.19;100.00;101370.03;5074241;28;20021;-76
2023/09/13 05:31:48;;;;;;;72.13;44.15;;;;;;;17.17;100.00;101366.72;5074362;28;20025;-74
2023/09/13 05:34:14;;;;;;;70.15;44.90;;;;;;;17.11;100.00;101368.06;5056057;28;20432;-73
2023/09/13 05:36:41;;;;;;;73.70;43.92;;;;;;;17.04;100.00;101347.81;5074080;28;20025;-76
2023/09/13 05:39:12;;;;;;;77.15;46.97;;;;;;;17.12;100.00;101366.28;5074649;28;20393;-74
2023/09/13 05:41:53;;;;;;;74.40;45.65;;;;;;;17.12;100.00;101384.53;5073578;28;20408;-76
2023/09/13 05:44:23;;;;;;;79.95;46.17;;;;;;;16.89;100.00;101347.25;5073886;28;20020;-76
2023/09/13 05:46:51;;;;;;;71.40;45.07;;;;;;;16.47;100.00;101273.31;5074172;28;20024;-77
2023/09/13 05:49:19;;;;;;;71.72;45.25;;;;;;;17.12;100.00;101385.38;5055912;28;20032;-72
2023/09/13 05:51:45;;;;;;;71.25;46.92;;;;;;;17.17;100.00;101383.19;5073787;28;20111;-72
2023/09/13 05:54:11;;;;;;;76.30;45.13;;;;;;;17.14;100.00;101377.41;5074028;28;20027;-75
2023/09/13 05:56:36;;;;;;;72.72;44.92;;;;;;;17.21;100.00;101383.78;5073742;28;20024;-74
2023/09/13 05:59:02;;;;;;;67.22;43.15;;;;;;;17.32;100.00;101402.00;5073740;28;20458;-75
2023/09/13 06:01:27;;;;;;;75.20;44.65;;;;;;;17.48;100.00;101401.56;5073637;28;20024;-76
2023/09/13 06:03:52;;;;;;;64.55;43.05;;;;;;;17.52;100.00;101400.34;5068287;28;20025;-74
2023/09/13 06:06:18;;;;;;;66.68;42.63;;;;;;;17.48;100.00;101391.94;5054424;28;20031;-73
2023/09/13 06:08:53;;;;;;;61.13;40.95;;;;;;;17.42;100.00;101375.97;5053852;28;20036;-74
2023/09/13 06:11:21;;;;;;;64.68;43.75;;;;;;;17.63;100.00;101417.75;5053660;28;20075;-75
2023/09/13 06:13:46;;;;;;;64.95;42.28;;;;;;;17.69;100.00;101410.25;5052903;28;20051;-79
2023/09/13 06:16:12;;;;;;;59.70;39.45;;;;;;;17.71;100.00;101418.81;5053534;28;20029;-79
2023/09/13 06:18:37;;;;;;;62.05;40.65;;;;;;;17.71;100.00;101420.59;5053324;28;20465;-75
2023/09/13 06:21:03;;;;;;;57.72;40.95;;;;;;;17.64;100.00;101414.19;5053429;28;20546;-75
2023/09/13 06:23:37;;;;;;;54.08;38.45;;;;;;;17.75;100.00;101428.03;5053142;28;20466;-77
2023/09/13 06:26:07;;;;;;;52.80;36.97;;;;;;;17.75;100.00;101441.09;5053133;28;20108;-77
2023/09/13 06:28:32;;;;;;;53.00;38.45;;;;;;;17.75;100.00;101435.84;5052929;28;20032;-78
2023/09/13 06:30:58;;;;;;;55.00;36.88;;;;;;;17.85;100.00;101446.38;5053212;28;20033;-78
2023/09/13 06:33:25;;;;;;;50.42;34.00;;;;;;;17.86;100.00;101445.41;5053214;28;20491;-78
2023/09/13 06:35:51;;;;;;;51.85;34.30;;;;;;;17.97;100.00;101453.16;5053085;28;20074;-79
2023/09/13 06:38:16;;;;;;;47.95;34.92;;;;;;;17.98;100.00;101444.38;5053396;28;20431;-77
2023/09/13 06:40:47;;;;;;;51.10;34.50;;;;;;;17.94;100.00;101444.78;5053306;28;20037;-79
2023/09/13 06:43:13;;;;;;;39.38;27.15;;;;;;;18.22;100.00;101448.50;5053004;28;20017;-80
2023/09/13 06:45:38;;;;;;;39.33;29.20;;;;;;;18.50;100.00;101457.41;5053043;28;20086;-78
2023/09/13 06:48:04;;;;;;;39.10;28.20;;;;;;;18.84;100.00;101456.16;5052763;28;20378;-79
2023/09/13 06:50:29;;;;;;;35.10;26.73;;;;;;;19.45;100.00;101449.84;5052645;28;20033;-74
2023/09/13 06:52:56;;;;;;;31.33;23.40;;;;;;;20.31;100.00;101455.88;5052878;28;20111;-78
2023/09/13 06:55:21;;;;;;;30.30;22.63;;;;;;;20.55;100.00;101458.84;5052529;28;20029;-78
2023/09/13 06:57:51;;;;;;;29.63;21.73;;;;;;;20.68;100.00;101461.13;5052567;28;20083;-78
2023/09/13 07:00:16;;;;;;;28.88;22.45;;;;;;;20.97;100.00;101457.50;5052605;28;20021;-76
2023/09/13 07:02:41;;;;;;;25.27;20.42;;;;;;;21.70;100.00;101481.81;5052849;28;20025;-77
2023/09/13 07:05:07;;;;;;;26.08;20.77;;;;;;;21.64;100.00;101467.47;5052722;28;20554;-77
2023/09/13 07:07:32;;;;;;;24.27;17.67;;;;;;;21.58;100.00;101480.41;5052642;28;20493;-78
2023/09/13 07:09:57;;;;;;;22.08;16.08;;;;;;;21.24;100.00;101462.69;5052496;28;20037;-79
2023/09/13 07:12:23;;;;;;;22.73;19.92;;;;;;;21.14;100.00;101488.19;5052584;28;20355;-79
2023/09/13 07:14:48;;;;;;;23.83;17.02;;;;;;;21.03;100.00;101481.34;5052061;28;20037;-73
2023/09/13 07:17:18;;;;;;;23.88;18.65;;;;;;;20.89;100.00;101487.94;5052727;28;20025;-78
2023/09/13 07:19:43;;;;;;;25.33;19.42;;;;;;;20.70;100.00;101505.59;5052600;28;20021;-77
2023/09/13 07:22:09;;;;;;;22.67;18.08;;;;;;;20.62;100.00;101498.44;5052381;28;20032;-80
2023/09/13 07:24:34;;;;;;;25.10;20.20;;;;;;;20.38;100.00;101488.44;5052616;28;20025;-80
2023/09/13 07:27:00;;;;;;;25.42;18.38;;;;;;;20.36;100.00;101495.63;5052519;28;20017;-78
2023/09/13 07:29:26;;;;;;;22.67;18.55;;;;;;;20.13;100.00;101505.63;5052331;28;20021;-78
2023/09/13 07:31:51;;;;;;;17.60;13.10;;;;;;;19.62;100.00;101521.72;5052362;28;20075;-78
2023/09/13 07:34:16;;;;;;;16.00;10.02;;;;;;;18.88;100.00;101520.38;5052440;28;20025;-78
2023/09/13 07:36:42;;;;;;;11.50;6.78;;;;;;;18.33;100.00;101511.97;5052499;28;20024;-78
2023/09/13 07:39:09;;;;;;;10.13;6.38;;;;;;;18.26;100.00;101542.22;5052359;28;20037;-77
2023/09/13 07:41:34;;;;;;;8.90;4.97;;;;;;;18.10;100.00;101530.56;5052920;28;20032;-78
2023/09/13 07:44:00;;;;;;;8.48;3.20;;;;;;;18.05;100.00;101549.22;5052117;28;20425;-76
2023/09/13 07:46:25;;;;;;;5.38;2.80;;;;;;;17.89;100.00;101536.59;5063572;28;20029;-78
2023/09/13 07:48:50;;;;;;;3.80;2.00;;;;;;;17.94;100.00;101551.91;5073412;28;20025;-75
2023/09/13 07:51:16;;;;;;;4.15;1.83;;;;;;;17.81;100.00;101546.88;5072045;28;20036;-76
2023/09/13 07:53:44;;;;;;;4.13;1.77;;;;;;;17.86;100.00;101563.00;5072743;28;20116;-79
2023/09/13 07:56:10;;;;;;;2.40;1.45;;;;;;;17.60;100.00;101572.06;5072649;28;20111;-74
2023/09/13 07:58:35;;;;;;;2.13;1.15;;;;;;;17.51;100.00;101576.28;5072032;28;20068;-75
2023/09/13 08:01:01;;;;;;;3.25;1.40;;;;;;;17.30;100.00;101552.69;5070525;28;20072;-77
2023/09/13 08:03:26;;;;;;;2.42;1.20;;;;;;;17.49;100.00;101575.56;5072377;28;20021;-75
2023/09/13 08:05:52;;;;;;;1.80;1.20;;;;;;;17.55;100.00;101587.31;5072028;28;20025;-77
2023/09/13 08:08:22;;;;;;;1.55;1.23;;;;;;;17.48;100.00;101589.56;5073156;28;20021;-77
2023/09/13 08:10:51;;;;;;;2.78;1.55;;;;;;;17.60;100.00;101578.16;5076027;28;20121;-80
2023/09/13 08:13:19;;;;;;;4.38;1.65;;;;;;;17.89;100.00;101585.41;5075755;28;20028;-77
2023/09/13 08:15:45;;;;;;;3.25;1.38;;;;;;;18.05;100.00;101606.72;5075637;28;20047;-76
2023/09/13 08:18:10;;;;;;;1.23;1.00;;;;;;;18.02;100.00;101615.66;5075695;28;20500;-76
2023/09/13 08:20:35;;;;;;;1.83;1.05;;;;;;;18.35;100.00;101621.66;5075834;28;20052;-73
2023/09/13 08:23:01;;;;;;;1.58;0.73;;;;;;;18.39;100.00;101630.09;5075575;28;20032;-76
2023/09/13 08:25:27;;;;;;;3.10;1.10;;;;;;;18.28;100.00;101617.91;5058010;28;20039;-77
2023/09/13 08:27:52;;;;;;;2.70;0.88;;;;;;;18.41;100.00;101621.16;5075600;28;20024;-75
2023/09/13 08:30:17;;;;;;;3.85;0.90;;;;;;;18.57;100.00;101644.25;5075305;28;20024;-71
2023/09/13 08:32:43;;;;;;;2.83;1.10;;;;;;;18.91;100.00;101639.66;5075614;28;20024;-77
2023/09/13 08:35:08;;;;;;;2.92;0.95;;;;;;;19.20;100.00;101658.94;5075550;28;20017;-75
2023/09/13 08:37:36;;;;;;;2.65;0.80;;;;;;;19.48;100.00;101669.63;5075401;28;20105;-77
2023/09/13 08:40:03;;;;;;;3.38;0.80;;;;;;;19.72;100.00;101667.50;5075016;28;20024;-75
2023/09/13 08:42:30;;;;;;;1.60;0.80;;;;;;;19.86;100.00;101673.28;5075374;28;20024;-71
2023/09/13 08:44:57;;;;;;;2.03;0.68;;;;;;;19.94;100.00;101676.91;5075476;28;20040;-73
2023/09/13 08:47:26;;;;;;;3.50;1.40;;;;;;;19.92;100.00;101657.03;5075295;28;20126;-74
2023/09/13 08:49:52;;;;;;;2.55;0.70;;;;;;;20.07;99.50;101702.03;5075352;28;20029;-79
2023/09/13 08:52:19;;;;;;;1.10;0.70;;;;;;;19.83;97.13;101684.06;5075075;28;20021;-72
2023/09/13 08:54:45;;;;;;;1.40;0.50;;;;;;;19.66;98.66;101712.56;5075010;28;20539;-75
2023/09/13 08:57:11;;;;;;;1.85;0.80;;;;;;;19.10;95.29;101702.56;5075195;28;20112;-73
2023/09/13 08:59:36;;;;;;;1.65;0.60;;;;;;;19.02;97.34;101728.56;5074840;28;20111;-72
2023/09/13 09:02:02;;;;;;;1.58;0.60;;;;;;;18.90;99.57;101709.50;5075100;28;20054;-79
2023/09/13 09:04:29;;;;;;;2.20;0.70;;;;;;;18.89;100.00;101693.91;5075177;28;20028;-72
2023/09/13 09:06:54;;;;;;;1.52;0.63;;;;;;;19.15;99.72;101729.16;5074994;28;20060;-75
2023/09/13 09:09:28;;;;;;;2.40;0.93;;;;;;;19.00;97.34;101735.72;5074781;28;20060;-73
2023/09/13 09:11:57;;;;;;;2.65;0.70;;;;;;;18.97;98.95;101735.13;5075070;28;20107;-73
2023/09/13 09:14:22;;;;;;;2.40;0.70;;;;;;;18.87;96.46;101735.06;5072419;28;20036;-75
2023/09/13 09:16:51;;;;;;;1.05;0.80;;;;;;;18.94;96.10;101745.88;5074916;28;20393;-76
2023/09/13 09:19:16;;;;;;;1.90;0.80;;;;;;;18.96;94.76;101736.09;5074454;28;20025;-77
2023/09/13 09:21:42;;;;;;;2.05;1.00;;;;;;;18.91;94.92;101749.56;5074510;28;20474;-76
2023/09/13 09:24:07;;;;;;;2.88;0.90;;;;;;;18.68;92.58;101737.56;5074380;28;20048;-75
2023/09/13 09:26:33;;;;;;;2.38;0.90;;;;;;;18.60;94.51;101751.25;5074770;28;20466;-73
2023/09/13 09:29:32;;;;;;;2.60;1.00;;;;;;;18.70;97.06;101752.19;5074487;28;20036;-77
2023/09/13 09:31:58;;;;;;;2.50;1.05;;;;;;;18.45;94.20;101765.56;5074065;28;20032;-77
2023/09/13 09:34:31;;;;;;;2.90;1.17;;;;;;;18.41;95.83;101765.00;5074207;28;20017;-75
2023/09/13 09:37:04;;;;;;;3.10;1.10;;;;;;;18.31;93.31;101779.78;5074557;28;20115;-77
2023/09/13 09:39:29;;;;;;;2.47;0.90;;;;;;;18.22;96.02;101773.50;5074380;28;20021;-77
2023/09/13 09:41:58;;;;;;;3.20;1.30;;;;;;;18.17;95.82;101753.91;5074099;28;20028;-77
2023/09/13 09:44:28;;;;;;;2.85;1.00;;;;;;;18.39;95.53;101773.94;5074164;28;20052;-74
2023/09/13 09:46:54;;;;;;;3.30;1.20;;;;;;;18.43;95.60;101757.84;5074074;28;20488;-76
2023/09/13 09:49:19;;;;;;;2.15;0.90;;;;;;;18.55;95.11;101767.31;5073716;28;20107;-75
2023/09/13 09:51:45;;;;;;;4.38;1.30;;;;;;;18.67;94.83;101767.28;5073951;28;20029;-76
2023/09/13 09:54:11;;;;;;;3.92;1.35;;;;;;;18.49;92.83;101773.06;5074146;28;20122;-79
2023/09/13 09:56:36;;;;;;;2.10;1.10;;;;;;;18.48;95.00;101766.16;5073788;28;20020;-77
2023/09/13 09:59:03;;;;;;;3.25;1.27;;;;;;;18.67;96.84;101777.75;5088724;28;20052;-79
2023/09/13 10:01:28;;;;;;;3.38;1.15;;;;;;;18.71;97.88;101768.72;5073743;28;20059;-77
2023/09/13 10:03:59;;;;;;;2.65;1.25;;;;;;;18.69;97.06;101775.88;5073548;28;20056;-75
2023/09/13 10:06:24;;;;;;;2.78;1.33;;;;;;;18.61;96.56;101776.47;5073578;28;20466;-77
2023/09/13 10:08:50;;;;;;;4.32;1.55;;;;;;;18.54;97.46;101777.91;5073850;28;20027;-75
2023/09/13 10:11:22;;;;;;;4.40;1.35;;;;;;;18.40;98.18;101776.44;5058055;28;20500;-75
2023/09/13 10:13:48;;;;;;;2.33;1.30;;;;;;;18.42;99.72;101771.91;5053254;28;20111;-78
2023/09/13 10:16:15;;;;;;;2.35;1.50;;;;;;;18.46;100.00;101775.91;5054566;28;20103;-74
2023/09/13 10:25:48;;;;;;;2.50;1.30;;;;;;;18.63;97.58;101811.16;5244171;23;20042;-78
2023/09/13 10:34:53;;;;;;;1.88;1.23;;;;;;;19.84;91.97;101819.41;3839527;22;20030;31
2023/09/13 10:37:47;;;;;;;2.72;1.05;;;;;;;19.82;89.54;101822.16;5060695;28;20063;-74
2023/09/13 10:40:20;;;;;;;2.90;1.15;;;;;;;19.73;87.60;101802.81;5073085;28;20044;-78
2023/09/13 10:42:49;;;;;;;1.30;1.00;;;;;;;20.00;87.21;101838.09;5073010;28;20031;-77
2023/09/13 10:45:18;;;;;;;2.42;1.00;;;;;;;19.87;87.50;101822.59;5072428;28;20075;-78
2023/09/13 10:47:49;;;;;;;2.00;1.10;;;;;;;19.94;87.64;101831.56;5072289;28;20070;-77
2023/09/13 10:50:15;;;;;;;1.63;0.80;;;;;;;19.76;83.82;101841.03;5072325;28;20039;-79
2023/09/13 10:52:43;;;;;;;2.28;0.88;;;;;;;19.56;84.32;101834.03;5072593;28;20021;-74
2023/09/13 10:55:10;;;;;;;3.53;0.98;;;;;;;19.59;87.72;101804.97;5053041;28;20367;-74
2023/09/13 10:57:39;;;;;;;1.55;0.90;;;;;;;20.14;86.55;101836.88;5055917;28;20146;-77
2023/09/13 11:00:11;;;;;;;2.72;1.10;;;;;;;20.68;84.84;101848.75;5072637;28;20032;-75
2023/09/13 11:02:38;;;;;;;1.85;0.90;;;;;;;21.07;83.46;101842.50;5072600;28;20030;-74
2023/09/13 11:05:04;;;;;;;3.00;1.00;;;;;;;21.14;80.90;101845.41;5072714;28;20070;-77
2023/09/13 11:07:32;;;;;;;2.65;1.00;;;;;;;20.54;74.83;101842.91;5072841;28;20040;-77
2023/09/13 11:10:05;;;;;;;2.78;1.10;;;;;;;20.27;82.93;101843.56;5070215;22;20052;-78
2023/09/13 11:13:20;;;;;;;3.17;1.13;;;;;;;19.09;85.05;101702.69;5177964;23;20050;-77
2023/09/13 11:16:07;;;;;;;3.70;1.17;;;;;;;18.94;84.44;101719.69;4990939;28;20435;-73
2023/09/13 11:18:52;;;;;;;3.97;1.10;;;;;;;19.43;85.67;101827.19;4991160;28;20030;-74
2023/09/13 11:21:20;;;;;;;1.90;0.75;;;;;;;19.66;87.87;101861.94;4991278;28;20550;-75